Time;durP1;ratioP1;P1;durP2;ratioP2;P2;SDS_P1;SDS_P2;PMS_P1;PMS_P2;Temp;Humidity;BMP_temperature;BMP_pressure;BME280_temperature;BME280_humidity;BME280_pressure;Samples;Min_cycle;Max_cycle;Signal;HPM_P1;HPM_P2
2022/06/02 00:01:20;;;;;;;7.03;5.65;;;;;;;9.85;88.09;101789.41;4987963;28;20037;-73
2022/06/02 00:04:23;;;;;;;8.68;6.15;;;;;;;9.98;87.37;101794.91;5034534;28;20479;-73
2022/06/02 00:07:10;;;;;;;8.38;5.63;;;;;;;9.84;88.95;101793.13;5034818;28;20022;-73
2022/06/02 00:09:53;;;;;;;7.88;5.80;;;;;;;9.83;88.48;101796.88;5015068;28;20065;-73
2022/06/02 00:12:27;;;;;;;10.77;6.50;;;;;;;9.82;88.77;101803.31;4995892;28;20116;-73
2022/06/02 00:15:23;;;;;;;7.10;6.20;;;;;;;9.86;88.74;101800.03;4996868;28;20400;-73
2022/06/02 00:18:10;;;;;;;10.65;6.82;;;;;;;9.77;88.84;101798.50;4997387;28;20072;-73
2022/06/02 00:20:57;;;;;;;9.95;6.68;;;;;;;9.72;89.20;101799.09;5021621;28;20029;-73
2022/06/02 00:23:48;;;;;;;8.48;7.30;;;;;;;9.76;88.57;101796.81;5034312;28;20486;-73
2022/06/02 00:26:43;;;;;;;8.33;6.50;;;;;;;9.71;88.99;101802.00;5034235;28;20056;-73
2022/06/02 00:29:18;;;;;;;9.25;6.90;;;;;;;9.68;88.53;101796.97;5034240;28;20621;-73
2022/06/02 00:32:00;;;;;;;8.88;6.88;;;;;;;9.66;88.15;101802.59;5033575;28;20042;-73
2022/06/02 00:34:33;;;;;;;9.23;6.75;;;;;;;9.63;89.14;101799.41;5034327;28;20059;-73
2022/06/02 00:37:18;;;;;;;8.95;7.15;;;;;;;9.58;89.77;101805.41;5032759;28;20033;-73
2022/06/02 00:39:46;;;;;;;9.98;7.03;;;;;;;9.57;90.04;101810.00;5034256;28;20036;-73
2022/06/02 00:42:50;;;;;;;9.27;7.35;;;;;;;9.58;88.69;101806.22;5033942;28;20570;-73
2022/06/02 00:45:18;;;;;;;7.80;7.07;;;;;;;9.58;89.70;101805.41;5002762;28;20564;-73
2022/06/02 00:48:11;;;;;;;10.63;7.43;;;;;;;9.65;88.64;101811.72;5032750;28;20072;-73
2022/06/02 00:50:52;;;;;;;8.95;7.25;;;;;;;9.62;88.91;101811.25;5034004;28;20022;-72
2022/06/02 00:53:25;;;;;;;9.70;7.68;;;;;;;9.55;89.46;101813.91;5033984;28;20033;-73
2022/06/02 00:59:14;;;;;;;8.32;7.28;;;;;;;9.46;89.76;101818.59;5033574;28;20080;-73
2022/06/02 01:01:39;;;;;;;8.88;6.95;;;;;;;9.42;89.68;101817.34;5013484;28;20041;-73
2022/06/02 01:04:15;;;;;;;9.63;8.02;;;;;;;9.39;89.45;101821.25;5033539;28;20022;-73
2022/06/02 01:07:08;;;;;;;8.93;7.72;;;;;;;9.37;90.34;101820.59;5015898;28;20525;-72
2022/06/02 01:09:48;;;;;;;9.25;7.70;;;;;;;9.29;89.68;101818.03;5033598;28;20022;-73
2022/06/02 01:12:25;;;;;;;9.23;8.00;;;;;;;9.28;89.93;101810.94;5015549;28;20033;-73
2022/06/02 01:14:53;;;;;;;9.98;7.63;;;;;;;9.20;90.83;101811.09;5032851;28;20177;-73
2022/06/02 01:17:33;;;;;;;9.63;8.35;;;;;;;9.14;90.12;101809.16;5033163;28;20029;-73
2022/06/02 01:20:24;;;;;;;9.85;8.35;;;;;;;9.14;91.17;101803.75;5032943;28;20104;-73
2022/06/02 01:23:27;;;;;;;9.85;8.10;;;;;;;9.24;89.55;101804.28;5033175;28;20037;-73
2022/06/02 01:26:29;;;;;;;9.30;7.70;;;;;;;9.20;88.82;101808.38;5033047;28;20104;-72
2022/06/02 01:29:22;;;;;;;8.93;7.43;;;;;;;9.14;89.64;101810.00;5032931;28;20033;-73
2022/06/02 01:32:02;;;;;;;10.13;8.60;;;;;;;8.99;90.56;101807.34;5032849;28;20371;-73
2022/06/02 01:34:49;;;;;;;10.43;7.95;;;;;;;8.93;90.35;101815.38;5032914;28;20033;-73
2022/06/02 01:37:22;;;;;;;9.43;8.30;;;;;;;8.90;91.35;101808.47;5033052;28;20670;-73
2022/06/02 01:39:57;;;;;;;10.65;8.82;;;;;;;8.92;91.27;101816.38;5032656;28;20086;-73
2022/06/02 01:42:22;;;;;;;9.32;8.43;;;;;;;8.86;91.71;101810.72;5032850;28;20041;-73
2022/06/02 01:45:15;;;;;;;10.30;8.73;;;;;;;8.90;90.92;101818.44;5032998;28;20075;-73
2022/06/02 01:47:43;;;;;;;9.77;8.65;;;;;;;8.79;90.61;101812.50;4997754;28;20460;-73
2022/06/02 01:50:35;;;;;;;14.07;9.13;;;;;;;8.78;90.86;101813.53;5032667;28;20025;-73
2022/06/02 01:53:06;;;;;;;11.23;8.30;;;;;;;8.77;91.13;101819.13;5031446;28;20076;-73
2022/06/02 01:55:59;;;;;;;10.18;9.10;;;;;;;8.75;91.95;101802.28;5032210;28;20046;-73
2022/06/02 01:58:50;;;;;;;11.15;8.50;;;;;;;8.79;90.91;101803.59;5031342;28;20037;-72
2022/06/02 02:01:29;;;;;;;11.40;8.55;;;;;;;8.79;90.48;101811.69;5030302;28;20030;-73
2022/06/02 02:04:29;;;;;;;10.13;8.25;;;;;;;8.82;90.09;101819.41;5032834;28;20064;-73
2022/06/02 02:07:25;;;;;;;8.63;7.68;;;;;;;8.77;89.75;101827.22;5031477;28;20478;-73
2022/06/02 02:09:57;;;;;;;9.35;8.02;;;;;;;8.75;90.19;101821.19;5032672;28;20036;-73
2022/06/02 02:12:37;;;;;;;9.65;8.23;;;;;;;8.80;91.14;101826.84;5032293;28;20072;-73
2022/06/02 02:15:19;;;;;;;10.95;8.65;;;;;;;8.77;90.80;101821.81;5031905;28;20076;-73
2022/06/02 02:17:44;;;;;;;11.75;10.55;;;;;;;8.75;89.91;101821.19;5031344;28;20394;-73
2022/06/02 02:20:29;;;;;;;12.80;10.45;;;;;;;8.72;90.66;101826.97;5030955;28;20052;-73
2022/06/02 02:23:10;;;;;;;11.85;10.52;;;;;;;8.68;91.70;101824.63;5031193;28;20021;-73
2022/06/02 02:25:58;;;;;;;11.85;10.50;;;;;;;8.67;90.91;101824.81;5030992;28;20037;-73
2022/06/02 02:29:04;;;;;;;13.13;11.52;;;;;;;8.65;90.05;101827.72;5032365;28;20478;-73
2022/06/02 02:31:36;;;;;;;13.63;11.40;;;;;;;8.53;90.99;101821.13;4983082;28;20044;-71
2022/06/02 02:34:18;;;;;;;13.73;11.80;;;;;;;8.47;91.51;101829.94;5012657;28;20038;-70
2022/06/02 02:37:17;;;;;;;12.80;11.40;;;;;;;8.49;91.47;101827.91;5016240;28;20033;-73
2022/06/02 02:39:59;;;;;;;14.45;11.70;;;;;;;8.43;90.86;101836.72;5024533;28;20442;-71
2022/06/02 02:42:35;;;;;;;;;;;;;;;8.60;88.88;101830.13;5018683;28;20077;-71
2022/06/02 02:45:31;;;;;;;13.70;12.18;;;;;;;8.41;91.00;101828.81;5016662;28;20281;-71
2022/06/02 02:48:23;;;;;;;13.77;12.20;;;;;;;8.43;91.61;101834.03;5016666;28;20066;-71
2022/06/02 02:51:15;;;;;;;15.07;12.77;;;;;;;8.41;90.65;101830.66;5016689;28;20109;-71
2022/06/02 02:53:47;;;;;;;14.90;12.07;;;;;;;8.41;90.40;101830.66;5017867;28;20037;-71
2022/06/02 02:56:51;;;;;;;13.00;11.70;;;;;;;8.46;90.70;101833.69;5035933;28;20029;-71
2022/06/02 02:59:19;;;;;;;14.20;12.63;;;;;;;8.31;90.16;101834.47;5006084;28;20108;-71
2022/06/02 03:02:14;;;;;;;17.25;12.48;;;;;;;8.34;90.92;101836.78;5033733;28;20056;-71
2022/06/02 03:04:55;;;;;;;14.30;12.00;;;;;;;8.31;90.43;101837.16;5035782;28;20393;-71
2022/06/02 03:07:20;;;;;;;18.35;13.35;;;;;;;8.26;90.76;101838.78;5035807;28;20041;-71
2022/06/02 03:10:03;;;;;;;14.02;12.13;;;;;;;8.25;90.33;101842.47;5025277;28;20383;-71
2022/06/02 03:12:48;;;;;;;13.65;12.10;;;;;;;8.28;90.69;101851.03;5034212;28;20474;-71
2022/06/02 03:15:36;;;;;;;13.98;12.38;;;;;;;8.17;90.89;101846.09;5035525;28;20049;-71
2022/06/02 03:18:14;;;;;;;15.05;13.45;;;;;;;8.16;90.60;101852.50;5035839;28;20052;-71
2022/06/02 03:20:51;;;;;;;16.27;13.80;;;;;;;8.09;91.63;101848.88;5035987;28;20033;-71
2022/06/02 03:23:47;;;;;;;16.55;13.70;;;;;;;8.10;91.77;101853.25;5035116;28;20040;-71
2022/06/02 03:26:38;;;;;;;18.10;14.70;;;;;;;8.05;91.25;101858.38;5034141;28;20514;-71
2022/06/02 03:29:15;;;;;;;17.23;13.37;;;;;;;8.05;91.18;101859.19;5035641;28;20025;-71
2022/06/02 03:31:57;;;;;;;15.70;14.10;;;;;;;7.99;91.92;101863.44;5035250;28;20781;-71
2022/06/02 03:34:37;;;;;;;16.27;14.57;;;;;;;8.02;91.74;101872.19;5033649;28;20033;-71
2022/06/02 03:37:23;;;;;;;15.38;13.77;;;;;;;8.05;91.18;101874.53;5035476;28;20040;-71
2022/06/02 03:40:30;;;;;;;19.65;15.65;;;;;;;8.08;90.83;101880.38;5034176;28;20123;-71
2022/06/02 03:43:17;;;;;;;16.98;15.18;;;;;;;8.01;91.73;101878.63;5026836;28;20033;-71
2022/06/02 03:46:05;;;;;;;19.10;15.75;;;;;;;7.98;92.42;101879.81;5033984;28;20029;-71
2022/06/02 03:49:01;;;;;;;18.48;15.30;;;;;;;8.00;91.65;101883.16;5034591;28;20065;-71
2022/06/02 03:51:40;;;;;;;17.13;15.43;;;;;;;7.98;91.99;101879.81;5033700;28;20371;-71
2022/06/02 03:54:30;;;;;;;18.90;15.70;;;;;;;8.01;91.79;101884.81;5034775;28;20057;-71
2022/06/02 03:57:12;;;;;;;17.50;15.55;;;;;;;8.06;91.75;101886.97;5035023;28;20044;-71
2022/06/02 04:00:07;;;;;;;17.35;15.52;;;;;;;8.11;91.38;101885.41;5035018;28;20065;-71
2022/06/02 04:02:44;;;;;;;18.55;16.17;;;;;;;8.08;91.56;101887.66;5032496;28;20021;-71
2022/06/02 04:05:34;;;;;;;19.05;16.17;;;;;;;8.08;91.87;101890.34;5033161;28;20120;-71
2022/06/02 04:08:34;;;;;;;20.35;16.00;;;;;;;8.07;91.76;101894.06;5034313;28;20044;-71
2022/06/02 04:14:47;;;;;;;20.48;18.27;;;;;;;8.09;91.86;101897.38;5034168;28;20107;-71
2022/06/02 04:17:31;;;;;;;20.50;18.35;;;;;;;8.11;92.99;101903.47;5034214;28;20032;-72
2022/06/02 04:20:35;;;;;;;21.38;17.88;;;;;;;8.18;92.57;101895.47;5034350;28;20029;-71
2022/06/02 04:23:25;;;;;;;19.33;16.80;;;;;;;8.28;92.60;101904.97;5014231;28;20486;-71
2022/06/02 04:26:22;;;;;;;21.17;18.55;;;;;;;8.34;92.66;101904.22;5034503;28;20562;-71
2022/06/02 04:29:25;;;;;;;22.35;19.55;;;;;;;8.39;92.29;101909.06;5034209;28;20079;-71
2022/06/02 04:32:05;;;;;;;22.80;18.90;;;;;;;8.41;92.87;101909.72;5034468;28;20525;-71
2022/06/02 04:34:57;;;;;;;22.88;20.42;;;;;;;8.48;92.97;101907.16;5031073;28;20041;-71
2022/06/02 04:37:53;;;;;;;25.90;20.55;;;;;;;8.52;92.21;101914.69;5034202;28;20049;-71
2022/06/02 04:40:33;;;;;;;23.17;20.40;;;;;;;8.55;92.34;101912.66;5033907;28;20030;-71
2022/06/02 04:43:04;;;;;;;24.45;19.98;;;;;;;8.55;92.92;101918.88;5034222;28;20067;-71
2022/06/02 04:46:13;;;;;;;23.88;21.23;;;;;;;8.61;93.25;101917.31;5033949;28;20045;-71
2022/06/02 04:49:08;;;;;;;23.08;20.45;;;;;;;8.66;93.14;101918.41;5033610;28;20021;-71
2022/06/02 04:52:27;;;;;;;23.58;21.08;;;;;;;8.76;92.69;101915.44;5032595;28;20033;-71
2022/06/02 04:55:10;;;;;;;23.05;20.60;;;;;;;8.78;93.74;101916.09;4972614;28;20089;-71
2022/06/02 04:57:57;;;;;;;23.35;20.85;;;;;;;8.89;92.98;101922.03;4972184;28;20046;-71
2022/06/02 05:00:46;;;;;;;26.92;21.77;;;;;;;8.97;93.37;101925.47;5022822;28;20117;-71
2022/06/02 05:03:46;;;;;;;24.52;21.75;;;;;;;9.05;93.15;101914.56;5033525;28;20037;-72
2022/06/02 05:06:23;;;;;;;25.00;22.30;;;;;;;9.07;94.16;101908.16;5033481;28;20033;-72
2022/06/02 05:09:10;;;;;;;27.98;22.55;;;;;;;9.15;93.46;101910.72;5033812;28;20029;-71
2022/06/02 05:11:44;;;;;;;26.00;22.25;;;;;;;9.26;93.52;101920.22;5031973;28;20352;-71
2022/06/02 05:14:28;;;;;;;29.58;23.45;;;;;;;9.36;93.52;101932.41;5032021;28;20453;-72
2022/06/02 05:17:31;;;;;;;27.67;23.27;;;;;;;9.40;93.63;101933.69;5033624;28;20394;-71
2022/06/02 05:20:15;;;;;;;28.00;22.63;;;;;;;9.42;94.39;101925.41;5023930;28;20107;-71
2022/06/02 05:23:19;;;;;;;26.88;23.25;;;;;;;9.56;93.44;101924.50;5033483;28;20167;-71
2022/06/02 05:26:14;;;;;;;28.20;24.15;;;;;;;9.59;95.09;101931.41;4983421;28;20058;-71
2022/06/02 05:28:58;;;;;;;26.58;23.35;;;;;;;9.64;93.79;101926.25;5005256;28;20406;-72
2022/06/02 05:31:45;;;;;;;28.65;24.80;;;;;;;9.75;93.45;101931.16;5031858;28;20072;-71
2022/06/02 05:34:34;;;;;;;28.45;25.23;;;;;;;9.80;93.93;101930.56;5032442;28;20033;-72
2022/06/02 05:37:33;;;;;;;28.90;25.27;;;;;;;9.88;94.18;101935.00;5032959;28;20226;-71
2022/06/02 05:40:14;;;;;;;27.88;23.65;;;;;;;9.95;95.10;101927.81;5033202;28;20060;-71
2022/06/02 05:42:55;;;;;;;32.40;25.30;;;;;;;10.01;95.45;101926.16;5033131;28;20033;-72
2022/06/02 05:45:36;;;;;;;30.90;24.02;;;;;;;10.02;96.15;101925.97;5032796;28;20299;-72
2022/06/02 05:48:21;;;;;;;27.77;24.88;;;;;;;10.09;95.72;101932.28;5032553;28;20021;-72
2022/06/02 05:51:14;;;;;;;31.20;24.88;;;;;;;10.21;95.46;101934.47;5033008;28;20029;-72
2022/06/02 05:54:04;;;;;;;26.23;23.42;;;;;;;10.28;95.51;101936.19;5032375;28;20030;-71
2022/06/02 05:56:54;;;;;;;27.95;24.85;;;;;;;10.32;95.85;101935.78;5032759;28;20075;-72
2022/06/02 06:00:06;;;;;;;30.05;22.95;;;;;;;10.44;95.45;101945.06;5032687;28;20212;-72
2022/06/02 06:02:58;;;;;;;28.67;22.15;;;;;;;10.46;94.89;101951.97;5015166;28;20033;-72
2022/06/02 06:05:42;;;;;;;28.67;24.33;;;;;;;10.57;95.14;101949.75;5031328;28;20124;-72
2022/06/02 06:08:29;;;;;;;28.20;22.58;;;;;;;10.63;94.55;101948.97;5032705;28;20118;-72
2022/06/02 06:11:07;;;;;;;26.48;22.50;;;;;;;10.75;94.35;101960.03;5032718;28;20568;-71
2022/06/02 06:13:48;;;;;;;26.33;21.83;;;;;;;10.76;94.92;101964.44;5032344;28;20030;-71
2022/06/02 06:16:43;;;;;;;25.58;21.70;;;;;;;10.81;95.28;101956.56;5032792;28;20382;-72
2022/06/02 06:19:46;;;;;;;25.42;20.98;;;;;;;10.92;94.61;101966.81;5032535;28;20466;-72
2022/06/02 06:22:35;;;;;;;23.10;20.67;;;;;;;11.02;93.53;101971.88;5012593;28;20399;-71
2022/06/02 06:25:19;;;;;;;23.02;19.67;;;;;;;11.07;93.56;101969.41;5012470;28;20029;-71
2022/06/02 06:27:56;;;;;;;22.55;19.30;;;;;;;11.16;93.59;101970.91;5012820;28;20105;-71
2022/06/02 06:30:34;;;;;;;19.50;17.10;;;;;;;11.23;91.82;101970.09;5012568;28;20036;-72
2022/06/02 06:33:20;;;;;;;19.33;16.88;;;;;;;11.32;91.93;101977.00;5012723;28;20120;-72
2022/06/02 06:35:54;;;;;;;19.45;16.17;;;;;;;11.43;92.68;101970.16;5027682;28;20065;-72
2022/06/02 06:38:32;;;;;;;18.67;16.65;;;;;;;11.50;92.39;101973.72;5032166;28;20083;-72
2022/06/02 06:41:07;;;;;;;18.90;14.30;;;;;;;11.58;91.75;101983.56;5032336;28;20080;-72
2022/06/02 06:43:32;;;;;;;15.95;14.30;;;;;;;11.64;91.40;101983.59;5030797;28;20378;-72
2022/06/02 06:46:15;;;;;;;16.40;14.70;;;;;;;11.69;91.08;101985.69;5032330;28;20032;-72
2022/06/02 06:48:52;;;;;;;16.65;14.63;;;;;;;11.76;91.34;101982.97;5030917;28;20426;-72
2022/06/02 06:51:33;;;;;;;13.27;11.98;;;;;;;11.83;88.77;101990.09;5012506;28;20034;-72
2022/06/02 06:54:05;;;;;;;14.73;12.52;;;;;;;11.87;89.03;101994.06;5012524;28;20117;-72
2022/06/02 06:56:43;;;;;;;13.88;12.40;;;;;;;11.95;88.64;101990.34;5012521;28;20057;-72
2022/06/02 06:59:47;;;;;;;13.07;11.50;;;;;;;12.07;89.61;101993.31;5012217;28;20026;-72
2022/06/02 07:02:50;;;;;;;16.23;13.18;;;;;;;12.13;89.19;102003.31;4995774;28;20038;-72
2022/06/02 07:05:25;;;;;;;16.23;13.75;;;;;;;12.12;88.38;101998.94;4990466;28;20053;-73
2022/06/02 07:08:21;;;;;;;17.25;13.98;;;;;;;12.17;88.15;102006.47;5032009;28;20095;-73
2022/06/02 07:10:58;;;;;;;13.55;11.27;;;;;;;12.29;87.94;102006.66;5032069;28;20029;-71
2022/06/02 07:13:33;;;;;;;11.70;10.35;;;;;;;12.35;86.55;102009.41;5024420;28;20044;-72
2022/06/02 07:16:20;;;;;;;12.35;11.05;;;;;;;12.41;87.22;102008.56;5031497;28;20053;-72
2022/06/02 07:19:02;;;;;;;12.65;11.32;;;;;;;12.34;84.26;102009.63;5032032;28;20026;-72
2022/06/02 07:21:38;;;;;;;13.35;11.90;;;;;;;12.34;86.10;102010.44;5032384;28;20041;-72
2022/06/02 07:24:15;;;;;;;10.98;9.98;;;;;;;12.37;86.23;102014.63;5035773;28;20026;-72
2022/06/02 07:26:57;;;;;;;12.25;11.05;;;;;;;12.36;85.00;102007.50;5035475;28;20320;-72
2022/06/02 07:29:39;;;;;;;11.63;10.48;;;;;;;12.35;86.55;102013.97;5033848;28;20061;-72
2022/06/02 07:32:16;;;;;;;;;;;;;;;12.45;86.44;102014.41;5036038;28;20029;-72
2022/06/02 07:35:26;;;;;;;10.65;9.60;;;;;;;12.43;85.00;102030.06;5035127;28;19921;-72
2022/06/02 07:38:30;;;;;;;9.18;8.00;;;;;;;12.54;83.92;102029.44;5014847;28;20589;-72
2022/06/02 07:41:16;;;;;;;8.10;7.07;;;;;;;12.68;81.90;102034.84;5035250;28;20459;-72
2022/06/02 07:43:59;;;;;;;9.68;8.43;;;;;;;12.77;82.89;102031.75;5034267;28;20029;-72
2022/06/02 07:46:44;;;;;;;11.30;10.20;;;;;;;12.84;82.12;102034.44;5035018;28;20041;-73
2022/06/02 07:49:23;;;;;;;11.07;9.77;;;;;;;12.83;82.40;102030.06;5035235;28;20040;-73
2022/06/02 07:52:13;;;;;;;11.50;9.23;;;;;;;12.82;79.46;102031.09;5035320;28;20029;-71
2022/06/02 07:55:11;;;;;;;12.07;10.10;;;;;;;12.82;80.66;102030.25;5033450;28;20040;-72
2022/06/02 07:57:50;;;;;;;13.43;10.95;;;;;;;12.74;81.69;102028.59;5025703;28;20037;-73
2022/06/02 08:00:20;;;;;;;13.10;10.98;;;;;;;12.69;81.28;102020.25;5033740;28;20383;-73
2022/06/02 08:02:45;;;;;;;14.05;9.85;;;;;;;12.67;79.10;102023.16;5032340;28;20044;-74
2022/06/02 08:05:31;;;;;;;11.93;10.05;;;;;;;12.74;80.42;102025.88;5033798;28;20037;-72
2022/06/02 08:08:13;;;;;;;14.07;10.45;;;;;;;12.77;79.97;102017.31;5034354;28;20049;-76
2022/06/02 08:10:52;;;;;;;;;;;;;;;12.86;81.10;102023.34;5024628;28;20108;-76
2022/06/02 08:17:43;;;;;;;13.50;9.63;;;;;;;12.82;80.04;102022.09;4950901;28;20520;-77
2022/06/02 08:20:32;;;;;;;13.52;9.20;;;;;;;12.78;79.04;102018.97;4934990;29;20098;-75
2022/06/02 08:23:08;;;;;;;11.88;10.13;;;;;;;12.85;80.04;102017.09;4934884;29;20039;-74
2022/06/02 08:25:51;;;;;;;12.05;9.60;;;;;;;12.86;78.99;102018.78;4934357;29;20035;-75
2022/06/02 08:29:05;;;;;;;;;;;;;;;;;;;;;
2022/06/02 08:38:42;;;;;;;10.35;9.07;;;;;;;13.11;79.37;102032.50;4975530;28;20038;-80
2022/06/02 08:41:44;;;;;;;12.73;9.45;;;;;;;13.12;79.63;102020.59;4976096;28;20045;-76
2022/06/02 08:44:44;;;;;;;11.18;8.80;;;;;;;13.29;77.89;102042.69;4992122;28;20037;-76
2022/06/02 08:47:41;;;;;;;9.95;8.00;;;;;;;13.35;76.12;102040.22;4949233;28;20041;-76
2022/06/02 08:50:24;;;;;;;10.55;8.05;;;;;;;13.39;74.27;102044.16;5012787;28;20423;-77
2022/06/02 08:53:27;;;;;;;8.95;8.02;;;;;;;13.45;74.02;102044.16;4996417;28;20033;-77
2022/06/02 08:56:20;;;;;;;11.10;7.90;;;;;;;13.60;75.16;102049.31;4996294;28;20057;-76
2022/06/02 08:59:10;;;;;;;9.25;8.43;;;;;;;13.73;74.56;102037.53;5003602;28;20030;-75
2022/06/02 09:02:06;;;;;;;10.65;7.85;;;;;;;13.83;73.11;102037.06;4990805;28;20034;-77
2022/06/02 09:05:17;;;;;;;9.00;5.75;;;;;;;13.92;72.89;102038.47;4994464;28;20065;-77
2022/06/02 09:08:22;;;;;;;10.50;6.17;;;;;;;13.97;70.37;102035.94;5008504;28;20037;-78
2022/06/02 09:29:07;;;;;;;7.65;6.95;;;;;;;14.70;67.06;102029.13;5036695;28;20047;-78
2022/06/02 09:31:48;;;;;;;7.43;6.72;;;;;;;14.82;67.59;102034.66;4922694;29;20497;-74
2022/06/02 09:34:25;;;;;;;8.93;8.02;;;;;;;14.82;64.63;102028.38;5018256;28;20038;-73
2022/06/02 09:37:28;;;;;;;7.95;7.15;;;;;;;14.93;66.60;102033.13;5028041;28;20127;-73
2022/06/02 09:40:02;;;;;;;10.50;7.50;;;;;;;14.91;63.02;102034.38;5039462;28;20477;-76
2022/06/02 09:42:48;;;;;;;7.80;7.00;;;;;;;14.89;64.18;102031.88;5052570;28;20489;-75
2022/06/02 09:45:33;;;;;;;8.80;6.97;;;;;;;14.92;63.29;102034.16;5033999;28;20048;-75
2022/06/02 09:48:23;;;;;;;7.93;7.22;;;;;;;14.93;64.95;102027.66;5032692;28;20053;-79
2022/06/02 09:51:04;;;;;;;10.85;7.47;;;;;;;15.01;65.74;102023.81;5020155;28;20037;-79
2022/06/02 09:54:00;;;;;;;10.68;8.15;;;;;;;15.12;64.85;102027.66;5024053;28;20463;-80
2022/06/02 09:57:55;;;;;;;9.02;8.13;;;;;;;15.05;63.23;102030.44;5031633;28;20112;-79
2022/06/02 10:00:31;;;;;;;9.63;7.90;;;;;;;15.05;64.46;102020.41;5014185;28;20524;-78
2022/06/02 10:03:09;;;;;;;8.50;7.60;;;;;;;15.23;64.33;102032.34;5003975;28;20037;-74
2022/06/02 10:05:46;;;;;;;9.05;7.80;;;;;;;15.42;63.00;102035.91;5031431;28;20120;-75
2022/06/02 10:08:25;;;;;;;8.23;7.40;;;;;;;15.37;62.00;102039.31;5032263;28;20087;-75
2022/06/02 10:11:17;;;;;;;7.78;7.10;;;;;;;15.33;61.09;102019.03;5032057;28;20029;-75
2022/06/02 10:14:03;;;;;;;8.93;6.55;;;;;;;15.56;62.92;102028.38;5031899;28;20057;-76
2022/06/02 10:16:53;;;;;;;7.90;7.07;;;;;;;15.72;61.92;102025.03;5031538;28;20028;-75
2022/06/02 10:19:55;;;;;;;7.95;6.28;;;;;;;15.81;61.00;102025.56;5032133;28;20033;-75
2022/06/02 10:22:38;;;;;;;6.32;5.72;;;;;;;15.89;59.16;102024.41;5032337;28;20029;-74
2022/06/02 10:25:04;;;;;;;7.07;6.40;;;;;;;15.67;56.93;102016.72;5030721;28;20025;-75
2022/06/02 10:27:43;;;;;;;7.35;6.60;;;;;;;15.67;60.38;102015.88;5031156;28;20184;-73
2022/06/02 10:30:30;;;;;;;7.15;6.30;;;;;;;15.94;62.08;102016.34;5031115;28;20061;-75
2022/06/02 10:32:58;;;;;;;7.63;6.70;;;;;;;15.97;59.60;102020.53;5029832;28;20095;-75
2022/06/02 10:35:36;;;;;;;6.78;6.03;;;;;;;16.06;58.22;102019.97;5031971;28;20064;-76
2022/06/02 10:38:24;;;;;;;7.15;5.93;;;;;;;16.13;59.31;102017.94;5030321;28;20025;-74
2022/06/02 10:40:56;;;;;;;6.47;5.88;;;;;;;16.26;60.36;102007.88;5032315;28;20057;-74
2022/06/02 10:43:39;;;;;;;8.02;5.55;;;;;;;16.31;59.03;102008.03;5021430;28;20033;-75
2022/06/02 10:46:35;;;;;;;6.45;5.85;;;;;;;16.25;58.09;102006.22;5031857;28;20033;-75
2022/06/02 10:49:36;;;;;;;6.70;6.10;;;;;;;16.27;58.70;102010.41;5031875;28;20675;-76
2022/06/02 10:52:23;;;;;;;8.90;6.15;;;;;;;16.15;56.86;102014.16;5032406;28;20029;-75
2022/06/02 10:55:33;;;;;;;8.93;6.45;;;;;;;16.25;59.15;102009.78;5030742;28;20040;-76
2022/06/02 10:58:17;;;;;;;7.55;6.80;;;;;;;16.30;55.63;101996.28;5033910;28;20025;-75
2022/06/02 11:01:15;;;;;;;6.65;5.85;;;;;;;16.47;58.27;101999.13;5032358;28;20175;-74
2022/06/02 11:04:06;;;;;;;6.00;4.57;;;;;;;16.73;58.99;101990.72;5034318;28;20029;-75
2022/06/02 11:06:40;;;;;;;8.98;6.55;;;;;;;16.80;56.49;102003.19;5035811;28;20087;-74
2022/06/02 11:09:31;;;;;;;9.80;6.53;;;;;;;16.66;57.45;101997.09;5034340;28;20053;-73
2022/06/02 11:12:13;;;;;;;7.78;6.93;;;;;;;16.44;56.34;101994.16;5035503;28;20025;-75
2022/06/02 11:15:00;;;;;;;;;;;;;;;16.42;59.18;102004.47;5035983;28;20025;-79
2022/06/02 11:17:32;;;;;;;8.05;7.25;;;;;;;16.40;59.06;101992.13;5034336;28;19913;-74
2022/06/02 11:20:42;;;;;;;7.60;6.90;;;;;;;16.57;57.05;101993.06;5035138;28;20104;-77
2022/06/02 11:23:29;;;;;;;7.95;7.15;;;;;;;16.80;57.38;101996.88;5004527;28;20045;-76
2022/06/02 11:26:18;;;;;;;8.35;6.60;;;;;;;16.70;55.24;101985.69;5035111;28;20041;-77
2022/06/02 11:29:10;;;;;;;8.48;6.63;;;;;;;16.71;54.67;101995.56;5017117;28;20055;-74
2022/06/02 11:32:06;;;;;;;7.30;6.60;;;;;;;16.70;57.15;101985.69;5029760;28;20033;-76
2022/06/02 11:34:37;;;;;;;6.80;6.10;;;;;;;16.63;54.75;101991.28;5034595;28;20057;-78
2022/06/02 11:37:17;;;;;;;7.20;6.15;;;;;;;16.52;55.54;101975.75;5032254;28;20041;-74
2022/06/02 11:39:52;;;;;;;6.63;5.63;;;;;;;16.50;56.31;101986.91;5015260;28;20036;-75
2022/06/02 11:42:26;;;;;;;7.68;5.45;;;;;;;16.55;55.43;101984.28;5024093;28;20037;-73
2022/06/02 11:45:09;;;;;;;6.03;5.43;;;;;;;16.80;56.92;101981.31;5034641;28;20486;-75
2022/06/02 11:47:54;;;;;;;6.85;6.15;;;;;;;16.99;55.07;101962.88;5030116;28;20038;-74
2022/06/02 11:50:38;;;;;;;7.68;5.95;;;;;;;17.35;54.54;101971.00;5005991;28;20038;-72
2022/06/02 11:53:18;;;;;;;6.00;5.40;;;;;;;17.53;52.98;101970.81;5030325;28;20033;-77
2022/06/02 11:55:49;;;;;;;7.40;6.10;;;;;;;17.66;51.11;101961.47;5029974;28;20368;-75
2022/06/02 11:58:58;;;;;;;6.25;5.65;;;;;;;17.62;53.04;101967.66;5034407;28;20048;-79
2022/06/02 12:01:37;;;;;;;5.55;5.05;;;;;;;17.68;50.73;101963.97;5031578;28;20025;-77
2022/06/02 12:08:37;;;;;;;;;;;;;;;;;;;;;
2022/06/02 12:15:50;;;;;;;;;;;;;;;;;;;;;
2022/06/02 12:22:25;;;;;;;4.73;4.23;;;;;;;18.32;49.29;101935.47;4971500;28;20145;-76
2022/06/02 12:25:22;;;;;;;5.13;4.60;;;;;;;18.44;49.76;101927.97;4952445;28;20286;-76
2022/06/02 12:28:16;;;;;;;5.65;4.57;;;;;;;18.41;50.88;101929.31;5028671;28;20045;-78
2022/06/02 12:30:51;;;;;;;5.72;4.10;;;;;;;18.40;48.97;101935.03;5034033;28;20064;-78
2022/06/02 12:33:28;;;;;;;5.90;4.53;;;;;;;18.55;49.61;101927.03;5033135;28;20051;-74
2022/06/02 12:36:15;;;;;;;4.65;4.18;;;;;;;18.71;48.78;101927.28;5034064;28;20356;-76
2022/06/02 12:39:14;;;;;;;5.03;4.53;;;;;;;18.82;48.53;101929.03;5033922;28;20033;-79
2022/06/02 12:42:16;;;;;;;4.65;4.25;;;;;;;19.11;48.92;101923.41;5034318;28;20079;-79
2022/06/02 12:45:26;;;;;;;4.85;4.43;;;;;;;19.28;48.35;101921.41;5033847;28;20091;-78
2022/06/02 12:48:24;;;;;;;5.70;4.88;;;;;;;19.33;46.82;101908.84;5013253;28;20045;-77
2022/06/02 12:51:22;;;;;;;5.47;4.97;;;;;;;19.48;47.21;101909.81;5033843;28;20044;-81
2022/06/02 12:54:25;;;;;;;5.22;4.75;;;;;;;19.58;47.61;101906.34;5033657;28;20033;-79
2022/06/02 12:57:15;;;;;;;5.47;4.97;;;;;;;19.62;45.75;101904.72;5034129;28;20033;-77
2022/06/02 12:59:59;;;;;;;4.50;4.10;;;;;;;19.68;45.18;101897.38;5033577;28;20563;-75
2022/06/02 13:02:52;;;;;;;6.22;4.72;;;;;;;19.63;44.75;101900.06;5031580;28;20037;-72
2022/06/02 13:05:36;;;;;;;5.30;4.80;;;;;;;19.69;44.46;101903.69;5032673;28;20075;-74
2022/06/02 13:08:39;;;;;;;5.85;4.85;;;;;;;19.85;46.08;101908.25;5033498;28;20034;-79
2022/06/02 13:11:23;;;;;;;6.53;4.18;;;;;;;20.05;44.93;101899.34;5033443;28;20376;-80
2022/06/02 13:14:10;;;;;;;5.60;4.38;;;;;;;20.09;43.97;101891.41;5033227;28;20037;-80
2022/06/02 13:16:58;;;;;;;4.80;3.80;;;;;;;20.28;45.15;101902.81;5033565;28;20033;-79
2022/06/02 13:19:37;;;;;;;4.60;4.20;;;;;;;20.23;43.96;101889.88;5031785;28;20504;-80
2022/06/02 13:22:03;;;;;;;4.28;3.88;;;;;;;20.31;42.38;101894.84;5033392;28;20045;-79
2022/06/02 13:24:52;;;;;;;4.30;3.35;;;;;;;20.44;44.70;101896.31;5033049;28;20080;-77
2022/06/02 13:27:42;;;;;;;4.10;3.33;;;;;;;20.53;43.03;101891.97;5028550;28;20033;-80
2022/06/02 13:30:45;;;;;;;5.13;3.53;;;;;;;20.60;43.71;101893.66;5033568;28;20386;-81
2022/06/02 13:33:45;;;;;;;4.03;3.65;;;;;;;20.60;43.43;101888.97;5033087;28;20634;-81
2022/06/02 13:36:39;;;;;;;5.53;4.80;;;;;;;20.59;42.56;101889.22;5033625;28;20026;-79
2022/06/02 13:39:31;;;;;;;4.85;4.05;;;;;;;20.61;43.38;101896.13;4994854;28;20073;-80
2022/06/02 13:42:14;;;;;;;3.78;3.47;;;;;;;20.77;43.02;101901.72;5032652;28;20108;-75
2022/06/02 13:44:45;;;;;;;4.72;4.32;;;;;;;20.58;40.84;101899.41;5033206;28;20494;-80